Time;durP1;ratioP1;P1;durP2;ratioP2;P2;SDS_P1;SDS_P2;PMS_P1;PMS_P2;Temp;Humidity;BMP_temperature;BMP_pressure;BME280_temperature;BME280_humidity;BME280_pressure;Samples;Min_cycle;Max_cycle;Signal;HPM_P1;HPM_P2
2023/05/04 00:00:12;58707.00;0.20;102.24;0.00;0.00;0.62;;;;;14.80;1.00;;;;;;2560133;56;1086;-85
2023/05/04 00:02:39;35033.00;0.12;61.29;0.00;0.00;0.62;;;;;14.90;1.00;;;;;;2559865;56;1340;-86
2023/05/04 00:05:09;107839.00;0.36;187.10;0.00;0.00;0.62;;;;;15.20;1.00;;;;;;2560138;56;1134;-85
2023/05/04 00:07:35;694065.00;2.31;1196.95;335001.00;1.12;578.08;;;;;15.10;1.00;;;;;;2560375;56;1127;-85
2023/05/04 00:10:02;2118589.00;7.06;3870.74;1143333.00;3.81;1988.09;;;;;15.40;1.00;;;;;;2562019;56;1600;-86
2023/05/04 00:12:30;3213975.00;10.71;6487.93;1074757.00;3.58;1865.34;;;;;15.30;1.00;;;;;;2562042;56;1960;-84
2023/05/04 00:14:57;969512.00;3.23;1678.55;115623.00;0.39;200.53;;;;;15.20;1.00;;;;;;2560447;56;1322;-86
2023/05/04 00:17:24;1454618.00;4.85;2558.01;212642.00;0.71;367.68;;;;;14.80;1.00;;;;;;2560410;56;1127;-87
2023/05/04 00:19:50;786062.00;2.62;1356.83;82424.00;0.27;143.22;;;;;14.80;1.00;;;;;;2560325;56;1149;-87
2023/05/04 00:22:19;668251.00;2.23;1152.22;0.00;0.00;0.62;;;;;14.80;1.00;;;;;;2560353;56;1123;-86
2023/05/04 00:24:45;610506.00;2.04;1052.36;0.00;0.00;0.62;;;;;15.00;1.00;;;;;;2560431;56;1289;-85
2023/05/04 00:27:12;463548.00;1.55;799.09;0.00;0.00;0.62;;;;;14.90;1.00;;;;;;2562515;56;1092;-86
2023/05/04 00:29:39;432011.00;1.44;744.84;0.00;0.00;0.62;;;;;14.60;1.00;;;;;;2560530;56;1087;-85
2023/05/04 00:32:06;564800.00;1.88;973.48;0.00;0.00;0.62;;;;;14.10;1.00;;;;;;2560489;56;1954;-85
2023/05/04 00:34:33;542895.00;1.81;935.71;6451.00;0.02;11.80;;;;;13.80;1.00;;;;;;2560591;56;1288;-85
2023/05/04 00:37:00;838290.00;2.79;1447.99;43172.00;0.14;75.38;;;;;14.00;1.00;;;;;;2560475;56;1130;-85
2023/05/04 00:39:29;117797912.00;392.66;66213304.00;0.00;0.00;0.62;;;;;14.00;1.00;;;;;;2560500;56;1139;-85
2023/05/04 00:41:55;493887.00;1.65;851.30;0.00;0.00;0.62;;;;;14.20;1.00;;;;;;2562680;56;1111;-86
2023/05/04 00:44:23;438031.00;1.46;755.20;0.00;0.00;0.62;;;;;14.70;1.00;;;;;;2560430;56;1319;-85
2023/05/04 00:46:51;279808.00;0.93;483.21;0.00;0.00;0.62;;;;;14.60;1.00;;;;;;2560568;56;1094;-85
2023/05/04 00:49:20;608159.00;2.03;1048.31;0.00;0.00;0.62;;;;;15.00;1.00;;;;;;2560453;56;1227;-86
2023/05/04 00:51:47;329055.00;1.10;567.86;0.00;0.00;0.62;;;;;15.30;1.00;;;;;;2562523;56;1609;-86
2023/05/04 00:54:16;567903.00;1.89;978.83;24155.00;0.08;42.46;;;;;15.70;1.00;;;;;;2560343;56;1911;-86
2023/05/04 00:56:45;341794.00;1.14;589.76;0.00;0.00;0.62;;;;;15.60;1.00;;;;;;2560391;56;1111;-85
2023/05/04 00:59:13;557547.00;1.86;960.97;106664.00;0.36;185.07;;;;;15.20;1.00;;;;;;2560293;56;1105;-85
2023/05/04 01:01:40;395043.00;1.32;681.28;0.00;0.00;0.62;;;;;15.40;1.00;;;;;;2560126;56;1140;-86
2023/05/04 01:04:08;522158.00;1.74;899.98;0.00;0.00;0.62;;;;;15.40;1.00;;;;;;2560357;56;1369;-84
2023/05/04 01:06:43;483405.00;1.61;833.26;95737.00;0.32;166.21;;;;;15.70;1.00;;;;;;2560161;56;1235;-84
2023/05/04 01:09:18;841633.00;2.81;1453.83;280955.00;0.94;485.18;;;;;15.70;1.00;;;;;;2562591;56;1727;-85
2023/05/04 01:11:54;550629.00;1.84;949.04;107335.00;0.36;186.23;;;;;15.40;1.00;;;;;;2562601;56;1080;-84
2023/05/04 01:14:22;1262671.00;4.21;2203.95;136892.00;0.46;237.21;;;;;15.00;1.00;;;;;;2562203;56;1966;-84
2023/05/04 01:16:50;546565.00;1.82;942.04;112478.00;0.37;195.11;;;;;14.80;1.00;;;;;;2562290;56;2191;-84
2023/05/04 01:19:16;905796.00;3.02;1566.30;136629.00;0.46;236.76;;;;;14.80;1.00;;;;;;2562397;56;1069;-85
2023/05/04 01:21:45;654052.00;2.18;1127.65;104939.00;0.35;182.10;;;;;14.60;1.00;;;;;;2562442;56;1108;-86
2023/05/04 01:24:12;560089.00;1.87;965.35;107277.00;0.36;186.13;;;;;14.80;1.00;;;;;;2562494;56;1277;-85
2023/05/04 01:26:41;505407.00;1.68;871.13;0.00;0.00;0.62;;;;;14.70;1.00;;;;;;2562442;56;1055;-85
2023/05/04 01:29:15;360963.00;1.20;622.70;34727.00;0.12;60.76;;;;;14.60;1.00;;;;;;2560372;56;1135;-85
2023/05/04 01:31:45;688502.00;2.30;1187.31;123283.00;0.41;213.75;;;;;14.60;1.00;;;;;;2560233;56;1100;-86
2023/05/04 01:34:13;713540.00;2.38;1230.73;106674.00;0.36;185.09;;;;;14.30;1.00;;;;;;2562544;56;1952;-86
2023/05/04 01:36:41;616829.00;2.06;1063.29;106591.00;0.36;184.95;;;;;14.10;1.00;;;;;;2562583;56;1094;-85
2023/05/04 01:39:09;464707.00;1.55;801.08;108038.00;0.36;187.44;;;;;14.10;1.00;;;;;;2560375;56;1059;-86
2023/05/04 01:41:36;577923.00;1.93;996.12;108739.00;0.36;188.65;;;;;14.20;1.00;;;;;;2560209;56;1038;-86
2023/05/04 01:44:04;534061.00;1.78;920.49;102724.00;0.34;178.27;;;;;14.20;1.00;;;;;;2562488;56;1396;-85
2023/05/04 01:46:31;542013.00;1.81;934.19;98770.00;0.33;171.45;;;;;14.40;1.00;;;;;;2560348;56;1115;-84
2023/05/04 01:48:58;573300.00;1.91;988.14;101707.00;0.34;176.52;;;;;14.20;1.00;;;;;;2560256;56;1102;-85
2023/05/04 01:51:25;525936.00;1.75;906.49;105988.00;0.35;183.91;;;;;14.10;1.00;;;;;;2560459;56;1118;-86
2023/05/04 01:53:52;655934.00;2.19;1130.90;91929.00;0.31;159.64;;;;;14.00;1.00;;;;;;2562519;56;1948;-85
2023/05/04 01:56:22;508599.00;1.70;876.63;105766.00;0.35;183.52;;;;;14.30;1.00;;;;;;2560361;56;1134;-85
2023/05/04 01:58:49;681603.00;2.27;1175.35;104740.00;0.35;181.75;;;;;14.00;1.00;;;;;;2562455;56;1130;-85
2023/05/04 02:01:16;538386.00;1.79;927.94;109225.00;0.36;189.49;;;;;14.10;1.00;;;;;;2562417;56;1550;-86
2023/05/04 02:03:43;732745.00;2.44;1264.07;108247.00;0.36;187.81;;;;;14.10;1.00;;;;;;2560166;56;1376;-85
2023/05/04 02:06:10;592810.00;1.98;1021.81;108099.00;0.36;187.55;;;;;14.20;1.00;;;;;;2560314;56;1068;-86
2023/05/04 02:08:38;585721.00;1.95;1009.57;107336.00;0.36;186.23;;;;;14.40;1.00;;;;;;2562556;56;1134;-86
2023/05/04 02:11:05;595812.00;1.99;1026.99;106403.00;0.35;184.62;;;;;14.70;1.00;;;;;;2562584;56;1469;-87
2023/05/04 02:13:33;589850.00;1.97;1016.70;117152.00;0.39;203.17;;;;;14.70;1.00;;;;;;2560450;56;1961;-86
2023/05/04 02:16:00;713210.00;2.38;1230.15;109641.00;0.37;190.21;;;;;14.30;1.00;;;;;;2560434;56;1117;-88
2023/05/04 02:18:27;810073.00;2.70;1398.70;155527.00;0.52;269.33;;;;;14.30;1.00;;;;;;2562582;56;2158;-87
2023/05/04 02:20:53;117596680.00;391.99;65874248.00;92068.00;0.31;159.88;;;;;14.40;1.00;;;;;;2562645;56;1115;-85
2023/05/04 02:23:20;614506.00;2.05;1059.27;106413.00;0.35;184.64;;;;;14.40;1.00;;;;;;2560513;56;1321;-87
2023/05/04 02:25:47;805295.00;2.68;1390.36;154518.00;0.52;267.59;;;;;14.30;1.00;;;;;;2560528;56;1111;-85
2023/05/04 02:28:20;787434.00;2.62;1359.22;105228.00;0.35;182.60;;;;;14.30;1.00;;;;;;2562645;56;1189;-86
2023/05/04 02:31:16;892903.00;2.98;1543.66;111871.00;0.37;194.06;;;;;14.20;1.00;;;;;;2560553;56;1118;-87
2023/05/04 02:33:43;707171.00;2.36;1219.68;80524.00;0.27;139.94;;;;;14.30;1.00;;;;;;2562524;56;1964;-87
2023/05/04 02:36:10;385457.00;1.28;664.81;0.00;0.00;0.62;;;;;14.30;1.00;;;;;;2562708;56;1090;-86
2023/05/04 02:38:37;401624.00;1.34;692.60;0.00;0.00;0.62;;;;;14.20;1.00;;;;;;2562511;56;1077;-86
2023/05/04 02:41:04;300858.00;1.00;519.39;0.00;0.00;0.62;;;;;14.10;1.00;;;;;;2560577;56;1167;-85
2023/05/04 02:43:31;482317.00;1.61;831.39;0.00;0.00;0.62;;;;;14.00;1.00;;;;;;2560360;56;1352;-86
2023/05/04 02:45:58;442451.00;1.47;762.80;0.00;0.00;0.62;;;;;14.10;1.00;;;;;;2560320;56;1462;-86
2023/05/04 02:48:26;424449.00;1.41;731.84;0.00;0.00;0.62;;;;;14.40;1.00;;;;;;2562590;56;1122;-84
2023/05/04 02:50:52;354334.00;1.18;611.31;0.00;0.00;0.62;;;;;14.00;1.00;;;;;;2562619;56;1150;-85
2023/05/04 02:53:19;318870.00;1.06;550.36;0.00;0.00;0.62;;;;;14.00;1.00;;;;;;2560305;56;1910;-85
2023/05/04 02:55:46;371782.00;1.24;641.30;0.00;0.00;0.62;;;;;13.80;1.00;;;;;;2562670;56;1169;-85
2023/05/04 02:58:13;117229248.00;390.76;65258156.00;0.00;0.00;0.62;;;;;13.70;1.00;;;;;;2560438;56;1086;-86
2023/05/04 03:00:40;452435.00;1.51;779.97;0.00;0.00;0.62;;;;;14.10;1.00;;;;;;2560291;56;1206;-85
2023/05/04 03:03:07;373790.00;1.25;644.75;0.00;0.00;0.62;;;;;14.10;1.00;;;;;;2562637;56;1371;-86
2023/05/04 03:05:35;271596.00;0.91;469.09;0.00;0.00;0.62;;;;;14.00;1.00;;;;;;2560540;56;1107;-87
2023/05/04 03:08:02;305222.00;1.02;526.90;0.00;0.00;0.62;;;;;14.20;1.00;;;;;;2560491;56;1008;-86
2023/05/04 03:10:29;266416.00;0.89;460.18;0.00;0.00;0.62;;;;;14.20;1.00;;;;;;2560393;56;1111;-87
2023/05/04 03:12:55;348807.00;1.16;601.81;0.00;0.00;0.62;;;;;14.00;1.00;;;;;;2560355;56;1966;-86
2023/05/04 03:15:22;347176.00;1.16;599.01;0.00;0.00;0.62;;;;;13.90;1.00;;;;;;2560451;56;1059;-84
2023/05/04 03:17:49;402556.00;1.34;694.20;0.00;0.00;0.62;;;;;14.10;1.00;;;;;;2562554;56;1059;-85
2023/05/04 03:20:16;331528.00;1.11;572.11;0.00;0.00;0.62;;;;;14.10;1.00;;;;;;2562640;56;2188;-85
2023/05/04 03:22:44;640016.00;2.13;1103.37;32748.00;0.11;57.34;;;;;13.80;1.00;;;;;;2562434;56;1793;-86
2023/05/04 03:25:11;541843.00;1.81;933.90;27531.00;0.09;48.31;;;;;13.70;1.00;;;;;;2560433;56;1079;-86
2023/05/04 03:27:38;331285.00;1.10;571.69;0.00;0.00;0.62;;;;;14.00;1.00;;;;;;2560639;56;1079;-84
2023/05/04 03:30:06;518897.00;1.73;894.37;0.00;0.00;0.62;;;;;14.10;1.00;;;;;;2560442;56;1122;-87
2023/05/04 03:32:33;417627.00;1.39;720.11;0.00;0.00;0.62;;;;;14.20;1.00;;;;;;2560404;56;1532;-84
2023/05/04 03:35:00;367456.00;1.22;633.86;0.00;0.00;0.62;;;;;14.30;1.00;;;;;;2560513;56;1968;-85
2023/05/04 03:37:27;591668.00;1.97;1019.84;130283.00;0.43;225.82;;;;;14.20;1.00;;;;;;2560484;56;1108;-84
2023/05/04 03:39:55;276473.00;0.92;477.47;0.00;0.00;0.62;;;;;13.60;1.00;;;;;;2562666;56;1506;-87
2023/05/04 03:42:22;289980.00;0.97;500.70;0.00;0.00;0.62;;;;;13.60;1.00;;;;;;2560511;56;982;-86
2023/05/04 03:44:49;266892.00;0.89;461.00;0.00;0.00;0.62;;;;;13.90;1.00;;;;;;2560477;56;1333;-84
2023/05/04 03:47:16;195409.00;0.65;338.02;0.00;0.00;0.62;;;;;14.20;1.00;;;;;;2562589;56;1641;-86
2023/05/04 03:49:43;273699.00;0.91;472.70;0.00;0.00;0.62;;;;;14.40;1.00;;;;;;2560406;56;1131;-86
2023/05/04 03:52:10;188487.00;0.63;326.10;0.00;0.00;0.62;;;;;14.40;1.00;;;;;;2562807;56;1117;-85
2023/05/04 03:54:37;323838.00;1.08;558.89;0.00;0.00;0.62;;;;;14.40;1.00;;;;;;2560447;56;1949;-85
2023/05/04 03:59:35;238990.00;0.80;413.01;0.00;0.00;0.62;;;;;14.30;1.00;;;;;;2560583;55;823;-84
2023/05/04 04:02:02;186230.00;0.62;322.22;0.00;0.00;0.62;;;;;14.00;1.00;;;;;;2562645;55;1572;-87
2023/05/04 04:04:29;297485.00;0.99;513.60;0.00;0.00;0.62;;;;;14.30;1.00;;;;;;2556320;56;1364;-86
2023/05/04 04:06:55;225134.00;0.75;389.18;0.00;0.00;0.62;;;;;14.40;1.00;;;;;;2555428;56;1083;-86
2023/05/04 04:09:22;350016.00;1.17;603.89;0.00;0.00;0.62;;;;;14.10;1.00;;;;;;2557558;55;979;-87
2023/05/04 04:11:49;299976.00;1.00;517.88;0.00;0.00;0.62;;;;;14.00;1.00;;;;;;2555704;56;1185;-89
2023/05/04 04:14:18;516444.00;1.72;890.14;1086.00;0.00;2.50;;;;;13.70;1.00;;;;;;2557879;55;1946;-89
2023/05/04 04:16:47;705835.00;2.35;1217.36;238764.00;0.80;412.63;;;;;13.90;1.00;;;;;;2557850;55;1463;-86
2023/05/04 04:19:13;257592.00;0.86;445.01;0.00;0.00;0.62;;;;;14.00;1.00;;;;;;2555618;56;1012;-86
2023/05/04 04:21:40;521495.00;1.74;898.84;205813.00;0.69;355.93;;;;;14.50;1.00;;;;;;2557676;55;1138;-85
2023/05/04 04:24:07;334752.00;1.12;577.65;0.00;0.00;0.62;;;;;14.10;1.00;;;;;;2555618;56;1245;-87
2023/05/04 04:26:34;331025.00;1.10;571.25;0.00;0.00;0.62;;;;;13.80;1.00;;;;;;2555772;56;1150;-88
2023/05/04 04:29:02;763566.00;2.55;1317.65;219035.00;0.73;378.68;;;;;13.60;1.00;;;;;;2557795;55;1115;-86
2023/05/04 04:31:29;320049.00;1.07;552.38;0.00;0.00;0.62;;;;;13.40;1.00;;;;;;2555705;56;1126;-86
2023/05/04 04:33:58;303964.00;1.01;524.73;0.00;0.00;0.62;;;;;13.30;1.00;;;;;;2557851;55;1957;-87
2023/05/04 04:36:25;372874.00;1.24;643.18;0.00;0.00;0.62;;;;;13.40;1.00;;;;;;2555683;56;1118;-87
2023/05/04 04:38:52;248666.00;0.83;429.66;0.00;0.00;0.62;;;;;13.20;1.00;;;;;;2557764;55;1686;-89
2023/05/04 04:41:19;483877.00;1.61;834.07;0.00;0.00;0.62;;;;;13.20;1.00;;;;;;2557822;55;1621;-86
2023/05/04 04:43:46;549904.00;1.83;947.79;108646.00;0.36;188.49;;;;;13.60;1.00;;;;;;2555827;56;1393;-85
2023/05/04 04:46:14;278008.00;0.93;480.11;0.00;0.00;0.62;;;;;13.70;1.00;;;;;;2555694;56;1095;-87
2023/05/04 04:48:41;417919.00;1.39;720.61;17959.00;0.06;31.74;;;;;13.60;1.00;;;;;;2555567;56;1123;-86
2023/05/04 04:51:12;322670.00;1.08;556.89;0.00;0.00;0.62;;;;;13.80;1.00;;;;;;2557643;55;1812;-84
2023/05/04 04:53:39;354431.00;1.18;611.48;0.00;0.00;0.62;;;;;13.90;1.00;;;;;;2555528;56;1956;-86
2023/05/04 04:56:08;342998.00;1.14;591.83;0.00;0.00;0.62;;;;;13.80;1.00;;;;;;2555735;56;1141;-85
2023/05/04 04:58:35;291692.00;0.97;503.64;0.00;0.00;0.62;;;;;13.80;1.00;;;;;;2555539;56;1123;-87
2023/05/04 05:01:04;726201.00;2.42;1252.70;26126.00;0.09;45.88;;;;;13.70;1.00;;;;;;2557722;56;2088;-85
2023/05/04 05:03:31;329463.00;1.10;568.56;0.00;0.00;0.62;;;;;13.60;1.00;;;;;;2557576;56;1546;-84
2023/05/04 05:06:00;327931.00;1.09;565.93;0.00;0.00;0.62;;;;;13.40;1.00;;;;;;2557698;56;1393;-86
2023/05/04 05:08:28;301138.00;1.00;519.88;0.00;0.00;0.62;;;;;13.40;1.00;;;;;;2555585;56;1084;-87
2023/05/04 05:10:56;300546.00;1.00;518.86;0.00;0.00;0.62;;;;;13.40;1.00;;;;;;2555647;56;1107;-87
2023/05/04 05:13:23;345672.00;1.15;596.42;0.00;0.00;0.62;;;;;13.80;1.00;;;;;;2555567;56;1344;-87
2023/05/04 05:15:50;428521.00;1.43;738.84;0.00;0.00;0.62;;;;;13.80;1.00;;;;;;2555492;56;1959;-85
2023/05/04 05:18:16;437311.00;1.46;753.96;0.00;0.00;0.62;;;;;13.80;1.00;;;;;;2555631;56;1219;-86
2023/05/04 05:20:43;313166.00;1.04;540.55;0.00;0.00;0.62;;;;;13.80;1.00;;;;;;2555606;56;1114;-85
2023/05/04 05:23:10;401022.00;1.34;691.56;0.00;0.00;0.62;;;;;13.80;1.00;;;;;;2555643;56;1344;-85
2023/05/04 05:25:39;187778.00;0.63;324.88;0.00;0.00;0.62;;;;;14.10;1.00;;;;;;2555612;56;1091;-89
2023/05/04 05:28:06;289411.00;0.96;499.72;0.00;0.00;0.62;;;;;14.20;1.00;;;;;;2555693;56;1103;-88
2023/05/04 05:30:33;280792.00;0.94;484.90;0.00;0.00;0.62;;;;;14.30;1.00;;;;;;2554666;40;3520;-87
2023/05/04 05:32:59;345000.00;1.15;595.27;0.00;0.00;0.62;;;;;14.90;1.00;;;;;;2555455;56;1667;-85
2023/05/04 05:35:26;222893.00;0.74;385.32;0.00;0.00;0.62;;;;;16.00;1.00;;;;;;2557570;56;1966;-83
2023/05/04 05:37:53;208991.00;0.70;361.40;0.00;0.00;0.62;;;;;17.60;1.00;;;;;;2555435;56;1159;-84
2023/05/04 05:40:21;2190261.00;7.30;4022.59;552414.00;1.84;952.12;;;;;18.90;1.00;;;;;;2557644;56;1536;-85
2023/05/04 05:42:49;636538.00;2.12;1097.35;0.00;0.00;0.62;;;;;20.20;1.00;;;;;;2555434;56;1356;-84
2023/05/04 05:45:18;1082034.00;3.61;1878.32;31407.00;0.10;55.02;;;;;21.30;1.00;;;;;;2557634;56;1086;-85
2023/05/04 05:47:44;265461.00;0.88;458.54;0.00;0.00;0.62;;;;;22.00;1.00;;;;;;2557639;56;1060;-85
2023/05/04 05:50:13;173624.00;0.58;300.51;0.00;0.00;0.62;;;;;22.00;1.00;;;;;;2555468;56;1118;-85
2023/05/04 05:52:40;171039.00;0.57;296.06;0.00;0.00;0.62;;;;;22.60;1.00;;;;;;2555464;56;1244;-84
2023/05/04 05:55:07;791761.00;2.64;1366.76;108227.00;0.36;187.77;;;;;22.90;1.00;;;;;;2557617;56;1957;-87
2023/05/04 05:57:34;208826.00;0.70;361.11;0.00;0.00;0.62;;;;;22.60;1.00;;;;;;2555419;56;1227;-86
2023/05/04 06:00:03;313304.00;1.04;540.79;0.00;0.00;0.62;;;;;22.40;1.00;;;;;;2557700;56;1057;-86
2023/05/04 06:02:30;110274.00;0.37;191.30;0.00;0.00;0.62;;;;;22.10;1.00;;;;;;2555355;56;1103;-86
2023/05/04 06:04:57;4342326.00;14.47;10066.96;1708813.00;5.70;3042.56;;;;;22.20;1.00;;;;;;2555530;56;1515;-87
2023/05/04 06:07:24;117475968.00;391.59;65671412.00;117020960.00;390.07;64910616.00;;;;;23.00;1.00;;;;;;2555514;56;1372;-89
2023/05/04 06:09:51;11052.00;0.04;19.77;0.00;0.00;0.62;;;;;24.40;1.00;;;;;;2555643;56;1116;-89
2023/05/04 06:12:18;39849.00;0.13;69.63;0.00;0.00;0.62;;;;;25.20;1.00;;;;;;2555540;56;1103;-84
2023/05/04 06:14:46;2418.00;0.01;4.81;0.00;0.00;0.62;;;;;25.40;1.00;;;;;;2557428;56;1945;-86
2023/05/04 06:17:16;157865.00;0.53;273.36;0.00;0.00;0.62;;;;;25.60;1.00;;;;;;2555660;56;1146;-86
2023/05/04 06:19:44;79409.00;0.26;138.02;0.00;0.00;0.62;;;;;26.40;1.00;;;;;;2555640;56;1048;-87
2023/05/04 06:22:11;0.00;0.00;0.62;0.00;0.00;0.62;;;;;26.30;1.00;;;;;;2557685;56;1663;-85
2023/05/04 06:24:38;112547.00;0.38;195.22;0.00;0.00;0.62;;;;;26.70;1.00;;;;;;2557576;56;1253;-85
2023/05/04 06:27:05;68086.00;0.23;118.45;0.00;0.00;0.62;;;;;27.00;1.00;;;;;;2557511;56;1103;-86
2023/05/04 06:29:32;10478.00;0.03;18.78;0.00;0.00;0.62;;;;;27.40;1.00;;;;;;2555443;56;1134;-87
2023/05/04 06:31:59;79187.00;0.26;137.63;0.00;0.00;0.62;;;;;27.20;1.00;;;;;;2555383;56;1124;-88
2023/05/04 06:36:57;1542.00;0.01;3.29;0.00;0.00;0.62;;;;;27.60;1.00;;;;;;2560678;55;819;-88
2023/05/04 06:39:24;198623.00;0.66;343.55;9933.00;0.03;17.83;;;;;27.20;1.00;;;;;;2560748;55;1078;-89
2023/05/04 06:41:54;42045.00;0.14;73.43;0.00;0.00;0.62;;;;;27.80;1.00;;;;;;2560628;55;1112;-88
2023/05/04 06:44:21;0.00;0.00;0.62;0.00;0.00;0.62;;;;;28.30;1.00;;;;;;2556735;55;1320;-87
2023/05/04 06:46:48;90452.00;0.30;157.09;20829.00;0.07;36.71;;;;;28.60;1.00;;;;;;2555536;56;1080;-89
2023/05/04 06:49:16;84221.00;0.28;146.33;0.00;0.00;0.62;;;;;28.60;1.00;;;;;;2557701;55;1704;-88
2023/05/04 06:51:43;15389.00;0.05;27.28;0.00;0.00;0.62;;;;;28.70;1.00;;;;;;2557785;55;1544;-88
2023/05/04 06:54:15;41499.00;0.14;72.48;0.00;0.00;0.62;;;;;29.20;1.00;;;;;;2557672;55;1967;-87
2023/05/04 06:56:42;5832.00;0.02;10.73;0.00;0.00;0.62;;;;;29.70;1.00;;;;;;2557644;55;1548;-86
2023/05/04 06:59:09;26158.00;0.09;45.93;0.00;0.00;0.62;;;;;29.80;1.00;;;;;;2557528;55;2347;-86
2023/05/04 07:01:36;1306065.00;4.35;2283.21;26072.00;0.09;45.78;;;;;30.70;1.00;;;;;;2557451;55;2292;-84
2023/05/04 07:04:03;21443.00;0.07;37.77;0.00;0.00;0.62;;;;;31.00;1.00;;;;;;2555424;56;1362;-88
2023/05/04 07:06:31;85969.00;0.29;149.35;0.00;0.00;0.62;;;;;31.20;1.00;;;;;;2555171;56;1139;-86
2023/05/04 07:08:57;190607.00;0.64;329.75;0.00;0.00;0.62;;;;;31.30;1.00;;;;;;2557611;55;1227;-87
2023/05/04 07:11:27;53412.00;0.18;93.09;0.00;0.00;0.62;;;;;30.70;1.00;;;;;;2555500;56;1078;-90
2023/05/04 07:13:54;71034.00;0.24;123.55;0.00;0.00;0.62;;;;;30.30;1.00;;;;;;2557717;55;1267;-89
2023/05/04 07:16:21;44587.00;0.15;77.82;0.00;0.00;0.62;;;;;30.50;1.00;;;;;;2554084;55;3578;-88
2023/05/04 07:18:48;31627.00;0.11;55.40;0.00;0.00;0.62;;;;;29.50;1.00;;;;;;2554137;56;3683;-86
2023/05/04 07:21:15;57248.00;0.19;99.72;0.00;0.00;0.62;;;;;28.80;1.00;;;;;;2555441;56;1094;-89
2023/05/04 07:23:42;17896.00;0.06;31.63;0.00;0.00;0.62;;;;;29.00;1.00;;;;;;2556260;40;3564;-89
2023/05/04 07:26:09;42016.00;0.14;73.38;0.00;0.00;0.62;;;;;29.60;1.00;;;;;;2555345;56;1527;-89
2023/05/04 07:28:38;36787.00;0.12;64.33;0.00;0.00;0.62;;;;;29.50;1.00;;;;;;2557626;56;1071;-87
2023/05/04 07:31:05;0.00;0.00;0.62;0.00;0.00;0.62;;;;;29.10;1.00;;;;;;2555435;56;1055;-85
2023/05/04 07:33:32;9719.00;0.03;17.46;0.00;0.00;0.62;;;;;28.60;1.00;;;;;;2557473;56;1316;-86
2023/05/04 07:38:28;248135.00;0.83;428.74;0.00;0.00;0.62;;;;;28.40;1.00;;;;;;2560529;55;864;-85
2023/05/04 07:43:23;104840.00;0.35;181.93;0.00;0.00;0.62;;;;;27.30;1.00;;;;;;2558773;55;1203;-85
2023/05/04 07:45:53;29480.00;0.10;51.68;0.00;0.00;0.62;;;;;27.20;1.00;;;;;;2555284;56;1106;-85
2023/05/04 07:48:20;88314.00;0.29;153.40;0.00;0.00;0.62;;;;;26.30;1.00;;;;;;2557330;55;1341;-85
2023/05/04 07:50:47;282363.00;0.94;487.60;52605.00;0.18;91.69;;;;;26.40;1.00;;;;;;2557474;55;1649;-84
2023/05/04 07:53:14;5494.00;0.02;10.14;0.00;0.00;0.62;;;;;26.80;1.00;;;;;;2555633;56;1352;-86
2023/05/04 07:55:41;0.00;0.00;0.62;0.00;0.00;0.62;;;;;28.00;1.00;;;;;;2555514;56;1952;-86
2023/05/04 07:58:08;520545.00;1.74;897.20;36262.00;0.12;63.42;;;;;27.90;1.00;;;;;;2557644;55;1534;-86
2023/05/04 08:00:36;5031.00;0.02;9.34;0.00;0.00;0.62;;;;;28.50;1.00;;;;;;2557763;55;1263;-85
2023/05/04 08:03:04;97354.00;0.32;169.00;19897.00;0.07;35.09;;;;;28.50;1.00;;;;;;2557752;55;1330;-86
2023/05/04 08:05:31;32116.00;0.11;56.25;0.00;0.00;0.62;;;;;28.60;1.00;;;;;;2555077;40;3518;-87
2023/05/04 08:07:58;17679.00;0.06;31.25;0.00;0.00;0.62;;;;;28.10;1.00;;;;;;2557931;56;915;-88
2023/05/04 08:10:25;30488.00;0.10;53.43;0.00;0.00;0.62;;;;;28.60;1.00;;;;;;2555663;56;1218;-87
2023/05/04 08:17:47;8663.00;0.03;15.63;0.00;0.00;0.62;;;;;26.90;1.00;;;;;;2555674;56;614;-85
2023/05/04 08:20:15;38551.00;0.13;67.38;0.00;0.00;0.62;;;;;27.00;1.00;;;;;;2557616;56;1084;-85
2023/05/04 08:22:42;70116.00;0.23;121.96;0.00;0.00;0.62;;;;;27.00;1.00;;;;;;2555414;56;1334;-84
2023/05/04 08:27:37;160118.00;0.53;277.24;5879.00;0.02;10.81;;;;;26.40;1.00;;;;;;2560483;55;601;-84
2023/05/04 08:30:05;32601.00;0.11;57.08;0.00;0.00;0.62;;;;;26.10;1.00;;;;;;2562778;55;1157;-86
2023/05/04 08:32:32;349639.00;1.17;603.24;100075.00;0.33;173.70;;;;;25.90;1.00;;;;;;2554867;40;3537;-87
2023/05/04 08:34:59;187112.00;0.62;323.74;47287.00;0.16;82.49;;;;;25.70;1.00;;;;;;2557568;56;1960;-85
2023/05/04 08:39:55;126615.00;0.42;219.49;0.00;0.00;0.62;;;;;25.90;1.00;;;;;;2557266;55;3618;-88
2023/05/04 08:57:12;16500.00;0.05;29.21;0.00;0.00;0.62;;;;;24.30;1.00;;;;;;2554535;55;3562;-86
2023/05/04 08:59:40;133397.00;0.44;231.19;32780.00;0.11;57.39;;;;;24.70;1.00;;;;;;2555525;56;1122;-86
2023/05/04 09:02:08;2344.00;0.01;4.68;0.00;0.00;0.62;;;;;25.10;1.00;;;;;;2557788;56;917;-87
2023/05/04 09:04:35;60417.00;0.20;105.20;0.00;0.00;0.62;;;;;25.30;1.00;;;;;;2557428;56;1366;-84
2023/05/04 09:07:02;98335.00;0.33;170.70;0.00;0.00;0.62;;;;;25.20;1.00;;;;;;2548944;40;3514;-84
2023/05/04 09:11:58;119907.00;0.40;207.92;0.00;0.00;0.62;;;;;23.70;1.00;;;;;;2550514;56;904;-85
2023/05/04 09:21:53;46473.00;0.15;81.09;0.00;0.00;0.62;;;;;23.30;1.00;;;;;;2560552;55;817;-84
2023/05/04 09:24:26;159616.00;0.53;276.38;0.00;0.00;0.62;;;;;22.70;1.00;;;;;;2556761;56;1532;-86
2023/05/04 09:26:53;84517.00;0.28;146.84;0.00;0.00;0.62;;;;;22.80;1.00;;;;;;2557484;55;1669;-84
2023/05/04 09:29:21;21751.00;0.07;38.30;0.00;0.00;0.62;;;;;22.60;1.00;;;;;;2554580;56;3766;-86
2023/05/04 09:39:19;66456.00;0.22;115.64;0.00;0.00;0.62;;;;;24.20;1.00;;;;;;2560706;55;890;-86
2023/05/04 09:41:46;0.00;0.00;0.62;0.00;0.00;0.62;;;;;24.40;1.00;;;;;;2560589;55;1099;-84
2023/05/04 09:44:21;61414.00;0.20;106.92;0.00;0.00;0.62;;;;;24.60;1.00;;;;;;2559393;55;1308;-86
2023/05/04 09:46:55;9996.00;0.03;17.94;0.00;0.00;0.62;;;;;25.00;1.00;;;;;;2557619;55;1233;-86
2023/05/04 09:49:31;157087.00;0.52;272.02;53038.00;0.18;92.44;;;;;25.40;1.00;;;;;;2555542;56;1076;-84
2023/05/04 09:52:01;196084.00;0.65;339.18;26881.00;0.09;47.18;;;;;25.80;1.00;;;;;;2557821;55;1096;-88
2023/05/04 09:54:31;35421.00;0.12;61.97;0.00;0.00;0.62;;;;;25.90;1.00;;;;;;2555619;56;1589;-86
2023/05/04 09:57:09;131136.00;0.44;227.29;0.00;0.00;0.62;;;;;25.90;1.00;;;;;;2555526;56;1911;-87
2023/05/04 09:59:37;0.00;0.00;0.62;0.00;0.00;0.62;;;;;26.20;1.00;;;;;;2555089;40;3503;-86
2023/05/04 10:02:05;47106.00;0.16;82.18;0.00;0.00;0.62;;;;;26.10;1.00;;;;;;2554150;56;3679;-85
2023/05/04 10:04:33;81420.00;0.27;141.49;0.00;0.00;0.62;;;;;26.20;1.00;;;;;;2557363;56;2307;-85
2023/05/04 10:09:31;66567.00;0.22;115.83;0.00;0.00;0.62;;;;;25.90;1.00;;;;;;2560554;55;922;-87
2023/05/04 10:12:00;69590.00;0.23;121.05;0.00;0.00;0.62;;;;;26.00;1.00;;;;;;2562762;55;1185;-84
2023/05/04 10:14:32;15773.00;0.05;27.95;0.00;0.00;0.62;;;;;26.20;1.00;;;;;;2556475;56;1365;-85
2023/05/04 10:17:12;10572.00;0.04;18.94;0.00;0.00;0.62;;;;;26.20;1.00;;;;;;2557726;55;1952;-84
2023/05/04 10:19:57;47333.00;0.16;82.57;0.00;0.00;0.62;;;;;26.30;1.00;;;;;;2557683;55;2214;-86
2023/05/04 10:22:40;11330.00;0.04;20.25;0.00;0.00;0.62;;;;;26.20;1.00;;;;;;2554685;56;3646;-86
2023/05/04 10:25:26;21615.00;0.07;38.07;0.00;0.00;0.62;;;;;25.90;1.00;;;;;;2550381;56;1048;-86
2023/05/04 10:28:06;219563.00;0.73;379.59;104825.00;0.35;181.90;;;;;26.10;1.00;;;;;;2552510;56;1508;-86
2023/05/04 10:30:33;56086.00;0.19;97.71;0.00;0.00;0.62;;;;;26.20;1.00;;;;;;2552512;56;1681;-85
2023/05/04 10:33:01;24580.00;0.08;43.20;0.00;0.00;0.62;;;;;26.40;1.00;;;;;;2550205;56;1344;-84
2023/05/04 10:35:28;41785.00;0.14;72.98;0.00;0.00;0.62;;;;;26.40;1.00;;;;;;2551899;56;3678;-87
2023/05/04 10:37:56;43357.00;0.14;75.70;0.00;0.00;0.62;;;;;26.20;1.00;;;;;;2557687;56;1644;-85
2023/05/04 10:40:36;29997.00;0.10;52.58;0.00;0.00;0.62;;;;;26.20;1.00;;;;;;2555388;56;1668;-86
2023/05/04 10:43:03;29321.00;0.10;51.41;0.00;0.00;0.62;;;;;26.20;1.00;;;;;;2555415;56;1464;-85
2023/05/04 10:45:40;58073.00;0.19;101.15;0.00;0.00;0.62;;;;;26.30;1.00;;;;;;2557601;56;1768;-85
2023/05/04 10:48:08;56276.00;0.19;98.04;0.00;0.00;0.62;;;;;26.60;1.00;;;;;;2557410;56;1760;-84